Time;durP1;ratioP1;P1;durP2;ratioP2;P2;SDS_P1;SDS_P2;PMS_P1;PMS_P2;Temp;Humidity;BMP_temperature;BMP_pressure;BME280_temperature;BME280_humidity;BME280_pressure;Samples;Min_cycle;Max_cycle;Signal;HPM_P1;HPM_P2
2022/08/24 00:01:15;;;;;;;18.75;16.55;;;19.50;99.90;;;;;;5021779;28;20030;-94
2022/08/24 00:03:42;;;;;;;22.98;18.15;;;19.50;99.90;;;;;;5019039;28;20144;-93
2022/08/24 00:06:10;;;;;;;19.67;16.60;;;19.60;99.90;;;;;;5018616;28;20390;-93
2022/08/24 00:08:37;;;;;;;20.13;17.05;;;19.50;99.90;;;;;;5015602;28;20030;-93
2022/08/24 00:11:04;;;;;;;20.52;16.83;;;19.50;99.90;;;;;;5012822;28;20170;-94
2022/08/24 00:13:29;;;;;;;20.02;16.95;;;19.40;99.90;;;;;;5014815;28;20496;-93
2022/08/24 00:15:56;;;;;;;18.52;16.23;;;19.40;99.90;;;;;;5013724;28;20029;-92
2022/08/24 00:18:22;;;;;;;24.25;18.60;;;19.30;99.90;;;;;;5025500;28;20112;-91
2022/08/24 00:20:47;;;;;;;20.33;17.73;;;19.30;99.90;;;;;;5017745;28;20132;-94
2022/08/24 00:23:14;;;;;;;19.48;17.25;;;19.20;99.90;;;;;;5017584;28;20026;-93
2022/08/24 00:25:39;;;;;;;19.63;16.98;;;19.20;99.90;;;;;;5003863;28;20027;-93
2022/08/24 00:28:06;;;;;;;20.33;17.92;;;19.10;99.90;;;;;;5027272;28;20121;-93
2022/08/24 00:30:32;;;;;;;21.70;16.95;;;19.10;99.90;;;;;;5018172;28;20118;-94
2022/08/24 00:32:57;;;;;;;21.10;17.25;;;19.10;99.90;;;;;;5016356;28;20075;-93
2022/08/24 00:35:23;;;;;;;23.50;17.88;;;19.00;99.90;;;;;;5006897;28;20482;-94
2022/08/24 00:37:50;;;;;;;24.30;18.08;;;19.00;99.90;;;;;;5012382;28;20485;-94
2022/08/24 00:40:24;;;;;;;23.95;18.02;;;19.00;99.90;;;;;;5014890;28;20026;-94
2022/08/24 00:42:51;;;;;;;24.65;18.00;;;19.00;99.90;;;;;;5014449;28;20025;-95
2022/08/24 00:45:18;;;;;;;20.55;17.00;;;18.90;99.90;;;;;;5009852;28;20032;-95
2022/08/24 00:47:50;;;;;;;23.63;19.88;;;18.90;99.90;;;;;;5014227;28;20029;-92
2022/08/24 00:50:32;;;;;;;23.35;20.25;;;18.90;99.90;;;;;;5009642;28;20025;-93
2022/08/24 00:53:01;;;;;;;23.10;19.45;;;18.90;99.90;;;;;;5010648;28;20117;-93
2022/08/24 00:55:33;;;;;;;23.00;20.70;;;18.80;99.90;;;;;;5014148;28;20029;-92
2022/08/24 00:58:19;;;;;;;21.50;18.83;;;18.80;99.90;;;;;;5025253;28;20029;-93
2022/08/24 01:00:54;;;;;;;23.40;19.50;;;18.80;99.90;;;;;;5006062;28;20038;-93
2022/08/24 01:03:20;;;;;;;22.38;19.95;;;18.70;99.90;;;;;;5009774;28;20026;-94
2022/08/24 01:05:46;;;;;;;23.63;19.30;;;18.70;99.90;;;;;;5003043;28;20125;-94
2022/08/24 01:08:12;;;;;;;21.95;18.75;;;18.60;99.90;;;;;;5012434;28;20377;-93
2022/08/24 01:10:43;;;;;;;28.02;22.63;;;18.60;99.90;;;;;;5016314;28;20033;-94
2022/08/24 01:13:11;;;;;;;25.30;22.42;;;18.60;99.90;;;;;;5013774;28;20026;-93
2022/08/24 01:15:39;;;;;;;27.85;23.60;;;18.60;99.90;;;;;;5014749;28;20029;-94
2022/08/24 01:21:14;;;;;;;18.33;16.38;;;18.60;99.90;;;;;;5035393;28;20055;-94
2022/08/24 01:23:43;;;;;;;29.15;20.02;;;18.60;99.90;;;;;;5005085;28;20121;-93
2022/08/24 01:26:12;;;;;;;24.77;20.02;;;18.50;99.90;;;;;;4998516;28;20437;-93
2022/08/24 01:28:39;;;;;;;26.60;22.25;;;18.50;99.90;;;;;;5010382;28;20029;-93
2022/08/24 01:31:05;;;;;;;30.23;23.38;;;18.40;99.90;;;;;;5017092;28;20061;-93
2022/08/24 01:33:31;;;;;;;28.02;22.73;;;18.40;99.90;;;;;;5016422;28;20057;-93
2022/08/24 01:36:01;;;;;;;29.42;24.25;;;18.40;99.90;;;;;;5013611;28;20076;-94
2022/08/24 01:38:27;;;;;;;26.67;22.80;;;18.40;99.90;;;;;;5016419;28;20113;-94
2022/08/24 01:40:59;;;;;;;28.60;24.45;;;18.30;99.90;;;;;;5011905;28;20564;-94
2022/08/24 01:43:24;;;;;;;30.85;24.27;;;18.30;99.90;;;;;;5002944;28;20029;-94
2022/08/24 01:45:50;;;;;;;29.17;25.48;;;18.30;99.90;;;;;;5015590;28;20026;-94
2022/08/24 01:48:16;;;;;;;34.70;27.65;;;18.30;99.90;;;;;;5021119;28;20517;-93
2022/08/24 01:50:42;;;;;;;34.80;29.15;;;18.30;99.90;;;;;;5016051;28;20026;-94
2022/08/24 01:53:08;;;;;;;37.50;29.67;;;18.30;99.90;;;;;;5017365;28;20033;-93
2022/08/24 01:55:35;;;;;;;29.27;25.73;;;18.30;99.90;;;;;;5016603;28;20052;-93
2022/08/24 01:58:02;;;;;;;29.05;25.77;;;18.30;99.90;;;;;;5016256;28;20064;-93
2022/08/24 02:00:27;;;;;;;34.05;29.83;;;18.30;99.90;;;;;;5013040;28;20033;-94
2022/08/24 02:02:55;;;;;;;35.00;29.20;;;18.30;99.90;;;;;;5016989;28;20033;-93
2022/08/24 02:05:22;;;;;;;33.45;27.85;;;18.30;99.90;;;;;;5015742;28;20069;-92
2022/08/24 02:07:48;;;;;;;30.55;25.38;;;18.20;99.90;;;;;;5014372;28;20035;-93
2022/08/24 02:10:14;;;;;;;31.30;27.98;;;18.20;99.90;;;;;;5014745;28;20136;-95
2022/08/24 02:12:43;;;;;;;30.95;27.33;;;18.10;99.90;;;;;;5016533;28;20033;-94
2022/08/24 02:15:10;;;;;;;31.17;27.23;;;18.10;99.90;;;;;;5016047;28;20083;-93
2022/08/24 02:17:36;;;;;;;36.50;29.33;;;18.10;99.90;;;;;;5019056;28;20030;-94
2022/08/24 02:20:05;;;;;;;32.00;28.50;;;18.10;99.90;;;;;;5012128;28;20141;-94
2022/08/24 02:22:31;;;;;;;28.58;25.48;;;18.10;99.90;;;;;;5012876;28;20396;-93
2022/08/24 02:24:57;;;;;;;30.25;24.98;;;18.00;99.90;;;;;;5004551;28;21938;-94
2022/08/24 02:27:22;;;;;;;28.38;25.13;;;18.00;99.90;;;;;;5016437;28;20539;-94
2022/08/24 02:29:48;;;;;;;29.27;25.92;;;18.00;99.90;;;;;;5013404;28;20041;-93
2022/08/24 02:32:13;;;;;;;29.83;26.35;;;18.00;99.90;;;;;;5013381;28;20037;-94
2022/08/24 02:34:39;;;;;;;30.15;26.35;;;18.00;99.90;;;;;;5013827;28;20029;-93
2022/08/24 02:37:05;;;;;;;36.15;28.20;;;18.00;99.90;;;;;;5014355;28;20039;-95
2022/08/24 02:39:31;;;;;;;23.67;21.13;;;18.00;99.90;;;;;;5016483;28;20030;-94
2022/08/24 02:41:57;;;;;;;31.42;25.85;;;18.00;99.90;;;;;;5014649;28;20033;-93
2022/08/24 02:44:22;;;;;;;30.02;26.48;;;18.00;99.90;;;;;;5015544;28;20034;-94
2022/08/24 02:46:48;;;;;;;30.90;27.60;;;18.00;99.90;;;;;;5015657;28;20025;-93
2022/08/24 02:49:14;;;;;;;34.65;30.85;;;18.00;99.90;;;;;;5020417;28;20025;-94
2022/08/24 02:51:43;;;;;;;36.25;30.30;;;17.90;99.90;;;;;;5013702;28;20033;-94
2022/08/24 02:54:09;;;;;;;33.45;29.83;;;18.00;99.90;;;;;;5015572;28;20032;-94
2022/08/24 02:56:35;;;;;;;34.20;28.65;;;17.90;99.90;;;;;;5015509;28;20112;-93
2022/08/24 02:59:01;;;;;;;28.30;25.35;;;17.90;99.90;;;;;;5011497;28;20056;-93
2022/08/24 03:01:27;;;;;;;29.23;23.65;;;17.80;99.90;;;;;;5005825;28;20041;-94
2022/08/24 03:03:54;;;;;;;29.15;25.08;;;17.80;99.90;;;;;;5013774;28;20061;-93
2022/08/24 03:06:20;;;;;;;31.75;27.02;;;17.80;99.90;;;;;;5015177;28;20073;-93
2022/08/24 03:08:45;;;;;;;33.67;29.25;;;17.70;99.90;;;;;;5015354;28;20406;-93
2022/08/24 03:11:11;;;;;;;40.28;31.98;;;17.70;99.90;;;;;;5014386;28;20302;-94
2022/08/24 03:13:39;;;;;;;31.05;26.15;;;17.70;99.90;;;;;;5015933;28;20156;-94
2022/08/24 03:16:05;;;;;;;28.30;24.30;;;17.70;99.90;;;;;;5017101;28;20033;-92
2022/08/24 03:18:32;;;;;;;26.55;22.83;;;17.60;99.90;;;;;;5009716;28;20029;-94
2022/08/24 03:21:00;;;;;;;29.20;25.48;;;17.60;99.90;;;;;;5015257;28;20041;-93
2022/08/24 03:23:26;;;;;;;29.63;26.27;;;17.60;99.90;;;;;;5013645;28;20440;-94
2022/08/24 03:25:53;;;;;;;29.77;25.70;;;17.50;99.90;;;;;;5012053;28;20037;-93
2022/08/24 03:28:22;;;;;;;19.55;17.40;;;17.50;99.90;;;;;;5011304;28;20385;-93
2022/08/24 03:30:49;;;;;;;18.73;16.80;;;17.50;99.90;;;;;;5008567;28;20404;-93
2022/08/24 03:33:15;;;;;;;22.80;19.70;;;17.40;99.90;;;;;;5001007;28;20026;-94
2022/08/24 03:35:41;;;;;;;22.38;18.08;;;17.40;99.90;;;;;;5015958;28;20052;-94
2022/08/24 03:38:06;;;;;;;21.30;19.05;;;17.40;99.90;;;;;;5011282;28;20062;-94
2022/08/24 03:40:33;;;;;;;25.88;23.02;;;17.40;99.90;;;;;;5020806;28;20087;-92
2022/08/24 03:43:00;;;;;;;29.63;26.00;;;17.40;99.90;;;;;;5012087;28;20478;-92
2022/08/24 03:45:26;;;;;;;26.15;22.77;;;17.30;99.90;;;;;;5009429;28;20025;-93
2022/08/24 03:47:52;;;;;;;33.55;26.25;;;17.40;99.90;;;;;;5011082;28;20069;-93
2022/08/24 03:50:19;;;;;;;33.15;29.42;;;17.30;99.90;;;;;;5009776;28;20025;-93
2022/08/24 03:52:45;;;;;;;34.53;29.90;;;17.30;99.90;;;;;;5007412;28;20026;-92
2022/08/24 03:55:11;;;;;;;36.55;30.67;;;17.40;99.90;;;;;;5012516;28;20492;-92
2022/08/24 03:57:37;;;;;;;38.83;30.83;;;17.40;99.90;;;;;;5015991;28;20036;-94
2022/08/24 04:00:10;;;;;;;37.75;30.77;;;17.30;99.90;;;;;;5022268;28;20029;-93
2022/08/24 04:02:36;;;;;;;43.70;36.85;;;17.30;99.90;;;;;;5006691;28;20080;-93
2022/08/24 04:05:04;;;;;;;40.65;36.03;;;17.40;99.90;;;;;;5003829;28;20104;-93
2022/08/24 04:07:30;;;;;;;43.88;37.42;;;17.40;99.90;;;;;;5017122;28;20052;-93
2022/08/24 04:09:55;;;;;;;41.00;36.08;;;17.40;99.90;;;;;;5018054;28;20394;-94
2022/08/24 04:12:21;;;;;;;35.65;31.77;;;17.30;99.90;;;;;;5019337;28;20045;-93
2022/08/24 04:14:50;;;;;;;41.78;35.40;;;17.30;99.90;;;;;;5003470;28;20030;-92
2022/08/24 04:17:15;;;;;;;40.30;33.50;;;17.30;99.90;;;;;;5011584;28;20036;-93
2022/08/24 04:19:56;;;;;;;43.35;35.08;;;17.30;99.90;;;;;;5019544;28;20481;-93
2022/08/24 04:22:25;;;;;;;45.13;37.53;;;17.30;99.90;;;;;;5019041;28;20523;-93
2022/08/24 04:24:51;;;;;;;52.92;40.58;;;17.30;99.90;;;;;;5017884;28;20025;-93
2022/08/24 04:27:17;;;;;;;50.97;39.90;;;17.30;99.90;;;;;;5013690;28;20032;-92
2022/08/24 04:29:42;;;;;;;48.42;40.53;;;17.30;99.90;;;;;;5006924;28;20056;-94
2022/08/24 04:32:08;;;;;;;55.95;41.17;;;17.30;99.90;;;;;;5017462;28;20030;-94
2022/08/24 04:34:34;;;;;;;48.80;39.83;;;17.30;99.90;;;;;;5010729;28;20026;-94
2022/08/24 04:37:00;;;;;;;37.65;33.55;;;17.30;99.90;;;;;;5015219;28;20485;-95
2022/08/24 04:39:26;;;;;;;35.50;30.40;;;17.30;99.90;;;;;;5011797;28;20025;-94
2022/08/24 04:41:51;;;;;;;37.58;32.38;;;17.30;99.90;;;;;;5019465;28;20037;-94
2022/08/24 04:44:17;;;;;;;41.20;34.58;;;17.30;99.90;;;;;;5018114;28;20021;-94
2022/08/24 04:46:43;;;;;;;41.17;33.47;;;17.30;99.90;;;;;;5028941;28;20391;-93
2022/08/24 04:49:09;;;;;;;34.03;30.30;;;17.30;99.90;;;;;;5016727;28;20065;-94
2022/08/24 04:51:35;;;;;;;33.75;30.20;;;17.30;99.90;;;;;;5015738;28;20056;-94
2022/08/24 04:54:00;;;;;;;38.63;33.15;;;17.20;99.90;;;;;;5014890;28;20060;-94
2022/08/24 04:56:26;;;;;;;41.33;34.47;;;17.20;99.90;;;;;;5017896;28;20033;-94
2022/08/24 04:58:53;;;;;;;40.97;32.65;;;17.20;99.90;;;;;;5007628;28;20026;-94
2022/08/24 05:01:21;;;;;;;34.55;30.63;;;17.20;99.90;;;;;;5016560;28;20044;-93
2022/08/24 05:03:49;;;;;;;36.63;30.17;;;17.20;99.90;;;;;;5016983;28;20033;-93
2022/08/24 05:06:17;;;;;;;36.38;32.42;;;17.20;99.90;;;;;;5011447;28;20057;-94
2022/08/24 05:08:43;;;;;;;37.72;31.80;;;17.20;99.90;;;;;;5013904;28;20033;-93
2022/08/24 05:11:09;;;;;;;37.80;32.25;;;17.20;99.90;;;;;;5023388;28;20029;-93
2022/08/24 05:13:36;;;;;;;41.70;35.55;;;17.20;99.90;;;;;;5019849;28;20034;-93
2022/08/24 05:16:10;;;;;;;44.83;38.05;;;17.20;99.90;;;;;;5021443;28;20022;-92
2022/08/24 05:18:36;;;;;;;45.85;37.35;;;17.20;99.90;;;;;;5019457;28;20070;-91
2022/08/24 05:21:06;;;;;;;47.17;39.50;;;17.20;99.90;;;;;;5013707;28;20044;-92
2022/08/24 05:23:31;;;;;;;49.92;39.20;;;17.30;99.90;;;;;;5017886;28;20036;-93
2022/08/24 05:26:09;;;;;;;48.90;40.42;;;17.30;99.90;;;;;;5021196;28;20022;-92
2022/08/24 05:28:35;;;;;;;48.00;39.15;;;17.40;99.90;;;;;;5019918;28;20036;-93
2022/08/24 05:31:30;;;;;;;48.00;39.17;;;17.40;99.90;;;;;;5015462;28;20022;-92
2022/08/24 05:33:58;;;;;;;45.50;37.88;;;17.40;99.90;;;;;;5011759;28;20448;-93
2022/08/24 05:36:29;;;;;;;42.35;36.45;;;17.50;99.90;;;;;;5014225;28;20025;-93
2022/08/24 05:38:57;;;;;;;43.58;35.35;;;17.50;99.90;;;;;;5019259;28;20468;-94
2022/08/24 05:41:23;;;;;;;43.58;38.35;;;17.50;99.90;;;;;;5011792;28;20034;-94
2022/08/24 05:43:49;;;;;;;50.28;39.50;;;17.60;99.90;;;;;;5018815;28;20029;-94
2022/08/24 05:46:15;;;;;;;55.83;40.13;;;17.70;99.90;;;;;;5023622;28;20030;-93
2022/08/24 05:48:42;;;;;;;47.55;40.38;;;17.80;99.90;;;;;;5019520;28;20036;-92
2022/08/24 05:51:09;;;;;;;51.08;41.38;;;17.80;99.90;;;;;;5012548;28;20064;-93
2022/08/24 05:53:35;;;;;;;51.53;42.50;;;17.90;99.90;;;;;;5003537;28;20021;-93
2022/08/24 05:56:05;;;;;;;51.22;42.72;;;17.90;99.90;;;;;;5004540;28;20025;-91
2022/08/24 05:58:31;;;;;;;54.50;43.08;;;18.00;99.90;;;;;;5010295;28;20029;-94
2022/08/24 06:00:58;;;;;;;55.60;45.47;;;18.10;99.90;;;;;;5018001;28;20428;-93
2022/08/24 06:03:25;;;;;;;55.45;44.10;;;18.20;99.90;;;;;;5022295;28;20437;-93
2022/08/24 06:05:51;;;;;;;48.30;42.83;;;18.30;99.90;;;;;;5014789;28;20103;-93
2022/08/24 06:08:17;;;;;;;58.05;45.95;;;18.30;99.90;;;;;;5011691;28;20022;-93
2022/08/24 06:10:46;;;;;;;49.70;40.13;;;18.40;99.90;;;;;;5010852;28;20405;-93
2022/08/24 06:13:13;;;;;;;49.28;40.97;;;18.50;99.90;;;;;;5023077;28;20083;-93
2022/08/24 06:15:39;;;;;;;51.33;42.72;;;18.70;99.90;;;;;;5016141;28;20440;-93
2022/08/24 06:18:05;;;;;;;50.63;42.95;;;18.80;99.90;;;;;;5005882;28;20485;-94
2022/08/24 06:20:37;;;;;;;54.35;45.78;;;18.90;99.90;;;;;;4999523;28;20033;-94
2022/08/24 06:23:02;;;;;;;47.83;42.70;;;19.00;99.90;;;;;;5015722;28;20497;-93
2022/08/24 06:28:12;;;;;;;48.78;42.05;;;19.30;99.90;;;;;;5035582;28;20100;-93
2022/08/24 06:30:37;;;;;;;49.13;41.42;;;19.40;99.90;;;;;;5018203;28;20029;-93
2022/08/24 06:33:04;;;;;;;50.10;43.25;;;19.50;99.90;;;;;;5018005;28;20036;-93
2022/08/24 06:35:30;;;;;;;49.45;41.15;;;19.70;99.90;;;;;;5006590;28;20029;-93
2022/08/24 06:37:56;;;;;;;44.72;39.97;;;19.80;99.90;;;;;;5014156;28;20026;-93
2022/08/24 06:40:23;;;;;;;45.03;39.35;;;20.00;99.90;;;;;;5018191;28;20023;-94
2022/08/24 06:42:48;;;;;;;44.55;39.10;;;20.00;99.90;;;;;;5017294;28;20088;-94
2022/08/24 06:45:14;;;;;;;42.65;37.83;;;20.20;99.90;;;;;;5018193;28;20017;-93
2022/08/24 06:47:40;;;;;;;43.92;38.47;;;20.30;99.90;;;;;;5010487;28;20041;-93
2022/08/24 06:50:07;;;;;;;40.45;36.10;;;20.40;99.90;;;;;;5017879;28;20032;-91
2022/08/24 06:52:34;;;;;;;40.95;34.22;;;20.60;99.90;;;;;;5013959;28;20050;-91
2022/08/24 06:55:00;;;;;;;37.78;33.42;;;20.70;99.90;;;;;;5017918;28;20030;-91
2022/08/24 06:57:25;;;;;;;38.88;33.72;;;20.90;99.90;;;;;;5011277;28;20122;-90
2022/08/24 06:59:51;;;;;;;35.47;31.63;;;21.10;99.90;;;;;;5011115;28;20025;-92
2022/08/24 07:02:18;;;;;;;35.55;30.45;;;21.20;99.90;;;;;;5011897;28;20101;-92
2022/08/24 07:04:44;;;;;;;35.08;29.15;;;21.30;99.90;;;;;;5015499;28;20432;-91
2022/08/24 07:07:10;;;;;;;34.00;29.10;;;21.50;99.90;;;;;;5014907;28;20099;-86
2022/08/24 07:09:36;;;;;;;33.65;28.00;;;21.60;99.90;;;;;;5012763;28;20026;-91
2022/08/24 07:12:02;;;;;;;33.63;25.25;;;21.80;99.90;;;;;;5014068;28;20437;-92
2022/08/24 07:14:28;;;;;;;29.20;24.50;;;22.00;99.90;;;;;;5013498;28;20036;-92
2022/08/24 07:16:54;;;;;;;29.88;23.88;;;22.10;99.90;;;;;;5009024;28;20151;-91
2022/08/24 07:19:19;;;;;;;31.98;24.88;;;22.20;99.90;;;;;;5015292;28;20109;-91
2022/08/24 07:21:45;;;;;;;27.35;22.25;;;22.40;99.90;;;;;;5002168;28;20088;-90
2022/08/24 07:24:10;;;;;;;26.77;21.88;;;22.60;99.90;;;;;;5015449;28;20018;-92
2022/08/24 07:26:37;;;;;;;23.13;19.98;;;22.70;99.90;;;;;;5015206;28;20079;-91
2022/08/24 07:29:07;;;;;;;24.70;19.95;;;22.80;99.90;;;;;;5017644;28;20021;-91
2022/08/24 07:31:35;;;;;;;22.42;19.65;;;22.90;99.90;;;;;;5016796;28;20029;-92
2022/08/24 07:34:02;;;;;;;21.73;19.27;;;23.10;99.90;;;;;;5026110;28;20109;-90
2022/08/24 07:36:28;;;;;;;24.67;17.50;;;23.20;99.90;;;;;;5021026;28;20115;-88
2022/08/24 07:38:53;;;;;;;20.23;16.63;;;23.30;99.90;;;;;;5019528;28;20440;-91
2022/08/24 07:41:21;;;;;;;21.02;16.10;;;23.40;99.90;;;;;;5019644;28;20104;-90
2022/08/24 07:43:47;;;;;;;17.67;15.32;;;23.50;99.90;;;;;;5013393;28;20091;-89
2022/08/24 07:46:12;;;;;;;19.50;14.02;;;23.70;99.90;;;;;;5020612;28;20440;-90
2022/08/24 07:48:38;;;;;;;16.92;12.95;;;23.80;99.90;;;;;;5018803;28;20029;-85
2022/08/24 07:51:12;;;;;;;16.02;12.40;;;23.90;99.90;;;;;;5021166;28;20367;-90
2022/08/24 07:53:38;;;;;;;15.27;12.43;;;24.00;99.90;;;;;;5019875;28;20104;-91
2022/08/24 07:56:04;;;;;;;13.60;11.55;;;24.20;99.90;;;;;;5018181;28;20057;-90
2022/08/24 07:58:31;;;;;;;14.27;10.32;;;24.30;99.90;;;;;;5021467;28;20143;-90
2022/08/24 08:00:56;;;;;;;13.38;9.77;;;24.40;99.90;;;;;;5017816;28;20037;-90
2022/08/24 08:03:24;;;;;;;13.25;8.80;;;24.50;99.90;;;;;;5009517;28;20382;-89
2022/08/24 08:05:57;;;;;;;13.25;7.65;;;24.60;99.90;;;;;;5021383;28;20115;-90
2022/08/24 08:08:24;;;;;;;12.57;6.70;;;24.70;99.90;;;;;;5026204;28;20022;-89
2022/08/24 08:10:50;;;;;;;8.60;6.65;;;24.80;99.90;;;;;;5024196;28;20104;-90
2022/08/24 08:13:15;;;;;;;8.52;6.78;;;24.90;99.90;;;;;;5014228;28;20476;-90
2022/08/24 08:15:41;;;;;;;11.80;6.78;;;25.00;99.90;;;;;;5021553;28;20035;-90
2022/08/24 08:18:07;;;;;;;8.23;7.28;;;25.10;99.90;;;;;;5018805;28;20481;-90
2022/08/24 08:20:33;;;;;;;10.60;6.60;;;25.30;99.90;;;;;;5020995;28;20109;-90
2022/08/24 08:25:47;;;;;;;9.02;5.68;;;25.40;99.90;;;;;;5037308;28;20036;-90
2022/08/24 08:28:13;;;;;;;7.88;5.10;;;25.50;99.90;;;;;;5031307;28;20068;-90
2022/08/24 08:30:40;;;;;;;11.23;5.10;;;25.60;99.90;;;;;;5019969;28;20025;-91
2022/08/24 08:33:06;;;;;;;7.25;4.68;;;25.80;99.90;;;;;;5020179;28;20021;-91
2022/08/24 08:35:32;;;;;;;7.85;3.97;;;25.90;99.80;;;;;;5010344;28;20018;-89
2022/08/24 08:37:58;;;;;;;4.80;4.20;;;26.00;99.60;;;;;;5017496;28;20041;-91
2022/08/24 08:40:46;;;;;;;7.57;4.65;;;26.10;99.20;;;;;;5010211;28;20111;-90
2022/08/24 08:43:59;;;;;;;10.50;4.45;;;26.30;98.80;;;;;;5016141;28;20034;-91
2022/08/24 08:46:44;;;;;;;5.47;3.35;;;26.40;98.50;;;;;;4935541;29;20023;-91
2022/08/24 08:49:36;;;;;;;7.15;3.67;;;26.50;98.10;;;;;;4946831;28;20057;-89
2022/08/24 08:52:31;;;;;;;7.43;4.38;;;26.70;97.90;;;;;;5010487;28;20463;-91
2022/08/24 08:55:04;;;;;;;9.18;4.88;;;26.90;97.70;;;;;;5019724;28;20025;-90
2022/08/24 08:58:12;;;;;;;5.22;1.80;;;27.00;97.00;;;;;;5020307;28;20107;-89
2022/08/24 09:00:51;;;;;;;3.92;1.20;;;27.10;96.40;;;;;;5006046;28;20041;-90
2022/08/24 09:03:31;;;;;;;5.32;1.75;;;27.20;95.70;;;;;;5016108;28;20026;-92
2022/08/24 09:06:03;;;;;;;4.95;1.70;;;27.20;95.10;;;;;;5020251;28;20038;-91
2022/08/24 09:09:07;;;;;;;3.53;1.65;;;27.30;95.00;;;;;;5020242;28;20025;-89
2022/08/24 09:11:47;;;;;;;6.00;2.17;;;27.40;94.50;;;;;;5029969;28;20030;-92
2022/08/24 09:14:14;;;;;;;4.32;1.55;;;27.60;94.10;;;;;;5011284;28;20388;-91
2022/08/24 09:16:54;;;;;;;3.22;1.65;;;27.60;94.00;;;;;;5020015;28;20033;-92
2022/08/24 09:19:41;;;;;;;3.55;1.52;;;27.60;93.40;;;;;;5019421;28;20152;-90
2022/08/24 09:22:11;;;;;;;4.38;2.10;;;27.60;93.60;;;;;;5019910;28;20097;-91
2022/08/24 09:24:56;;;;;;;3.92;1.75;;;27.60;93.20;;;;;;5018240;28;20424;-89
2022/08/24 09:27:22;;;;;;;2.67;1.50;;;27.80;92.90;;;;;;5019820;28;20040;-91
2022/08/24 09:29:58;;;;;;;4.68;1.27;;;27.80;92.50;;;;;;5019272;28;20035;-89
2022/08/24 09:32:36;;;;;;;4.20;1.10;;;27.90;92.00;;;;;;5019771;28;20477;-90
2022/08/24 09:35:32;;;;;;;5.30;1.20;;;28.00;91.80;;;;;;5032755;28;20084;-90
2022/08/24 09:37:59;;;;;;;3.38;1.08;;;28.10;91.80;;;;;;5020064;28;20057;-91
2022/08/24 09:40:35;;;;;;;2.60;1.08;;;28.10;91.40;;;;;;5020252;28;20108;-90
2022/08/24 09:43:01;;;;;;;3.25;1.38;;;28.20;90.90;;;;;;5018935;28;20061;-90
2022/08/24 09:46:21;;;;;;;3.00;0.85;;;28.20;90.60;;;;;;5019411;28;20037;-90
2022/08/24 09:49:15;;;;;;;2.78;0.80;;;28.30;90.30;;;;;;5019103;28;20116;-90
2022/08/24 09:52:25;;;;;;;2.40;1.00;;;28.40;90.00;;;;;;5015100;28;20033;-90
2022/08/24 09:55:13;;;;;;;4.72;0.85;;;28.40;89.60;;;;;;5028271;28;20045;-89
2022/08/24 09:58:05;;;;;;;1.60;0.70;;;28.50;89.30;;;;;;5018913;28;20021;-90
2022/08/24 10:00:54;;;;;;;2.30;0.70;;;28.70;88.60;;;;;;5018988;28;20045;-90
2022/08/24 10:03:38;;;;;;;3.72;0.70;;;28.90;87.30;;;;;;5018524;28;20052;-88
2022/08/24 10:06:41;;;;;;;2.03;0.50;;;28.90;86.30;;;;;;5018775;28;20045;-90
2022/08/24 10:09:20;;;;;;;1.60;0.50;;;29.10;86.10;;;;;;5003230;28;20049;-91
2022/08/24 10:12:05;;;;;;;1.67;0.40;;;29.20;85.70;;;;;;5002913;28;20481;-91
2022/08/24 10:14:40;;;;;;;2.72;0.40;;;29.30;84.40;;;;;;5017426;28;20037;-91
2022/08/24 10:17:24;;;;;;;1.23;0.40;;;29.50;82.80;;;;;;5019381;28;20045;-90
2022/08/24 10:20:28;;;;;;;4.35;0.60;;;29.60;81.20;;;;;;5038185;28;20080;-90
2022/08/24 10:23:12;;;;;;;1.92;0.40;;;29.60;80.50;;;;;;4974890;28;20099;-90
2022/08/24 10:26:15;;;;;;;1.30;0.40;;;29.60;80.10;;;;;;5015250;28;20521;-89
2022/08/24 10:29:11;;;;;;;1.33;0.30;;;29.60;79.20;;;;;;5019255;28;20111;-90
2022/08/24 10:32:17;;;;;;;0.70;0.30;;;29.60;79.20;;;;;;5018852;28;20436;-91
2022/08/24 10:35:00;;;;;;;0.52;0.30;;;29.60;78.10;;;;;;5012412;28;20026;-89
2022/08/24 10:41:26;;;;;;;0.30;0.20;;;29.70;77.10;;;;;;5024739;28;20416;-89
2022/08/24 10:44:07;;;;;;;0.52;0.10;;;29.80;76.00;;;;;;4948414;29;20034;-90
2022/08/24 10:46:58;;;;;;;0.93;0.30;;;30.00;75.10;;;;;;5017730;28;20038;-90
2022/08/24 10:50:04;;;;;;;0.57;0.20;;;30.10;74.10;;;;;;5031818;28;20033;-89
2022/08/24 10:52:46;;;;;;;0.50;0.20;;;30.00;73.20;;;;;;5013262;28;20041;-89
2022/08/24 10:55:33;;;;;;;0.85;0.30;;;30.00;73.40;;;;;;5018815;28;20068;-89
2022/08/24 10:58:17;;;;;;;2.08;0.25;;;30.10;73.80;;;;;;5008811;28;20036;-89
2022/08/24 11:00:43;;;;;;;2.22;0.30;;;30.30;73.50;;;;;;5025830;28;20386;-90
2022/08/24 11:03:17;;;;;;;0.80;0.40;;;30.40;73.40;;;;;;5015893;28;20026;-90
2022/08/24 11:05:48;;;;;;;0.60;0.30;;;30.60;72.50;;;;;;5018017;28;20560;-90
2022/08/24 11:08:29;;;;;;;1.48;0.40;;;30.80;72.30;;;;;;5017853;28;20168;-90
2022/08/24 11:11:26;;;;;;;1.53;0.50;;;31.00;71.70;;;;;;5023201;28;20095;-90
2022/08/24 11:14:08;;;;;;;2.00;0.50;;;31.20;70.80;;;;;;5030204;28;20300;-90
2022/08/24 11:16:39;;;;;;;;;;;31.30;70.60;;;;;;5041235;28;20037;-88
2022/08/24 11:19:12;;;;;;;3.03;0.60;;;31.40;71.10;;;;;;5040942;28;20284;-90
2022/08/24 11:21:53;;;;;;;1.30;0.40;;;31.50;70.80;;;;;;5040321;28;20551;-88
2022/08/24 11:24:39;;;;;;;1.63;0.40;;;31.70;69.20;;;;;;5023512;28;20113;-89
2022/08/24 11:27:16;;;;;;;1.73;0.40;;;31.80;68.80;;;;;;5030927;28;20386;-90
2022/08/24 11:29:50;;;;;;;0.80;0.30;;;31.90;68.10;;;;;;5025790;28;20025;-91
2022/08/24 11:32:32;;;;;;;2.65;0.30;;;32.00;68.00;;;;;;5009469;28;20099;-90
2022/08/24 11:35:06;;;;;;;0.55;0.32;;;32.10;67.20;;;;;;5020871;28;20033;-91
2022/08/24 11:37:36;;;;;;;1.58;0.50;;;32.10;66.80;;;;;;5013063;28;20243;-93
2022/08/24 11:40:03;;;;;;;1.55;0.50;;;31.90;65.90;;;;;;5017351;28;20027;-91
2022/08/24 11:42:35;;;;;;;2.15;0.45;;;31.80;65.70;;;;;;5016202;28;20041;-90
2022/08/24 11:45:28;;;;;;;1.58;0.30;;;31.70;66.80;;;;;;5032187;28;20025;-86
2022/08/24 11:48:05;;;;;;;1.48;0.40;;;31.60;67.10;;;;;;5040138;28;20405;-90
2022/08/24 11:50:43;;;;;;;0.85;0.40;;;31.60;67.30;;;;;;5041975;28;20045;-91
2022/08/24 11:53:20;;;;;;;0.85;0.35;;;31.50;67.80;;;;;;5042583;28;20033;-90
2022/08/24 11:56:00;;;;;;;1.73;0.40;;;31.50;67.00;;;;;;5021256;28;20126;-90
2022/08/24 11:58:52;;;;;;;2.40;0.30;;;31.40;66.60;;;;;;5023184;28;20033;-88
2022/08/24 12:01:31;;;;;;;1.98;0.30;;;31.30;66.70;;;;;;5031050;28;20251;-88
2022/08/24 12:04:22;;;;;;;2.42;0.40;;;31.40;67.00;;;;;;5024177;28;20028;-88
2022/08/24 12:07:12;;;;;;;1.38;0.40;;;31.40;66.90;;;;;;5025553;28;20092;-88
2022/08/24 12:09:52;;;;;;;2.38;0.47;;;31.40;66.80;;;;;;5021324;28;20041;-88
2022/08/24 12:12:40;;;;;;;1.65;0.40;;;31.40;66.60;;;;;;5020009;28;20116;-90
2022/08/24 12:15:26;;;;;;;1.88;0.95;;;31.50;66.40;;;;;;5009796;28;20393;-90
2022/08/24 12:18:01;;;;;;;4.90;0.40;;;31.50;66.20;;;;;;5041520;28;20033;-89
2022/08/24 12:20:35;;;;;;;0.80;0.40;;;31.60;65.30;;;;;;5022664;28;20037;-90
2022/08/24 12:23:13;;;;;;;3.15;0.32;;;31.70;65.40;;;;;;5022111;28;20141;-90
2022/08/24 12:28:29;;;;;;;2.25;0.40;;;32.00;64.60;;;;;;5038389;28;20099;-92
2022/08/24 12:30:58;;;;;;;1.40;0.50;;;32.20;64.50;;;;;;5033549;28;20440;-91
2022/08/24 12:33:31;;;;;;;2.90;0.40;;;32.50;64.10;;;;;;5021588;28;20112;-90
2022/08/24 12:36:06;;;;;;;2.10;0.40;;;32.80;63.00;;;;;;5037563;28;20108;-90
2022/08/24 12:38:42;;;;;;;1.90;0.47;;;33.00;62.30;;;;;;5037671;28;20099;-89
2022/08/24 12:41:17;;;;;;;2.67;0.40;;;33.20;61.30;;;;;;5035587;28;20029;-88
2022/08/24 12:43:54;;;;;;;2.60;0.50;;;33.10;60.80;;;;;;5038431;28;20045;-89
2022/08/24 12:46:22;;;;;;;0.82;0.30;;;33.10;61.10;;;;;;5020463;28;20547;-89
2022/08/24 12:49:07;;;;;;;1.17;0.40;;;33.20;61.10;;;;;;5020917;28;20482;-90
2022/08/24 12:52:10;;;;;;;0.73;0.30;;;33.40;60.30;;;;;;5020656;28;20841;-90
2022/08/24 12:55:00;;;;;;;1.75;0.30;;;33.50;60.30;;;;;;5018314;28;20365;-90
2022/08/24 12:57:51;;;;;;;4.88;0.40;;;33.60;59.90;;;;;;5032610;28;20079;-90
2022/08/24 13:00:30;;;;;;;1.98;0.43;;;33.60;59.50;;;;;;5035819;28;20106;-92
2022/08/24 13:03:00;;;;;;;2.45;0.32;;;33.50;60.20;;;;;;5022252;28;20033;-91
2022/08/24 13:05:39;;;;;;;1.60;0.30;;;33.50;59.20;;;;;;5029795;28;20025;-91
2022/08/24 13:08:16;;;;;;;0.95;0.40;;;33.40;59.50;;;;;;5032244;28;20025;-90
2022/08/24 13:10:51;;;;;;;1.55;0.40;;;33.30;59.90;;;;;;5022226;28;20034;-90
2022/08/24 13:13:37;;;;;;;1.98;0.40;;;33.20;59.20;;;;;;5040652;28;20036;-91